sensor_id;sensor_type;location;lat;lon;timestamp;pressure;altitude;pressure_sealevel;temperature;humidity
61710;BME280;47633;51.494;5.386;2023-08-30T00:00:11;100820.59;;;22.04;48.84
61710;BME280;47633;51.494;5.386;2023-08-30T00:02:36;100821.44;;;22.05;48.81
61710;BME280;47633;51.494;5.386;2023-08-30T00:05:03;100820.59;;;22.04;48.88
61710;BME280;47633;51.494;5.386;2023-08-30T00:07:29;100824.25;;;22.03;48.60
61710;BME280;47633;51.494;5.386;2023-08-30T00:09:54;100821.59;;;22.03;48.58
61710;BME280;47633;51.494;5.386;2023-08-30T00:12:20;100821.75;;;22.02;48.67
61710;BME280;47633;51.494;5.386;2023-08-30T00:14:45;100814.75;;;22.01;48.80
61710;BME280;47633;51.494;5.386;2023-08-30T00:17:11;100815.56;;;22.01;48.97
61710;BME280;47633;51.494;5.386;2023-08-30T00:19:36;100811.28;;;22.00;48.94
61710;BME280;47633;51.494;5.386;2023-08-30T00:22:02;100810.56;;;21.98;48.36
61710;BME280;47633;51.494;5.386;2023-08-30T00:24:27;100809.59;;;21.99;48.56
61710;BME280;47633;51.494;5.386;2023-08-30T00:26:53;100805.25;;;21.98;48.95
61710;BME280;47633;51.494;5.386;2023-08-30T00:29:19;100814.22;;;21.97;48.60
61710;BME280;47633;51.494;5.386;2023-08-30T00:31:44;100809.91;;;21.96;48.73
61710;BME280;47633;51.494;5.386;2023-08-30T00:34:09;100809.91;;;21.96;48.46
61710;BME280;47633;51.494;5.386;2023-08-30T00:36:35;100803.63;;;21.97;48.81
61710;BME280;47633;51.494;5.386;2023-08-30T00:39:00;100802.91;;;21.95;48.62
61710;BME280;47633;51.494;5.386;2023-08-30T00:41:25;100802.91;;;21.95;48.68
61710;BME280;47633;51.494;5.386;2023-08-30T00:43:50;100802.91;;;21.95;48.83
61710;BME280;47633;51.494;5.386;2023-08-30T00:46:16;100795.94;;;21.94;48.59
61710;BME280;47633;51.494;5.386;2023-08-30T00:48:41;100786.31;;;21.93;48.27
61710;BME280;47633;51.494;5.386;2023-08-30T00:51:10;100781.97;;;21.92;48.60
61710;BME280;47633;51.494;5.386;2023-08-30T00:53:36;100775.84;;;21.91;48.37
61710;BME280;47633;51.494;5.386;2023-08-30T00:56:01;100782.84;;;21.92;48.42
61710;BME280;47633;51.494;5.386;2023-08-30T00:58:27;100781.16;;;21.91;48.50
61710;BME280;47633;51.494;5.386;2023-08-30T01:00:53;100776.84;;;21.90;48.66
61710;BME280;47633;51.494;5.386;2023-08-30T01:03:19;100776.00;;;21.90;48.17
61710;BME280;47633;51.494;5.386;2023-08-30T01:05:47;100776.00;;;21.90;48.19
61710;BME280;47633;51.494;5.386;2023-08-30T01:08:12;100769.06;;;21.89;48.24
61710;BME280;47633;51.494;5.386;2023-08-30T01:10:47;100775.34;;;21.88;48.15
61710;BME280;47633;51.494;5.386;2023-08-30T01:13:19;100778.66;;;21.90;48.34
61710;BME280;47633;51.494;5.386;2023-08-30T01:15:49;100775.34;;;21.88;48.29
61710;BME280;47633;51.494;5.386;2023-08-30T01:18:18;100771.00;;;21.87;48.27
61710;BME280;47633;51.494;5.386;2023-08-30T01:20:45;100771.84;;;21.87;48.12
61710;BME280;47633;51.494;5.386;2023-08-30T01:23:58;100771.00;;;21.87;48.07
61710;BME280;47633;51.494;5.386;2023-08-30T01:28:46;100764.88;;;21.86;47.97
61710;BME280;47633;51.494;5.386;2023-08-30T01:31:13;100765.69;;;21.87;48.45
61710;BME280;47633;51.494;5.386;2023-08-30T01:33:39;100766.69;;;21.86;48.38
61710;BME280;47633;51.494;5.386;2023-08-30T01:36:05;100763.19;;;21.85;47.89
61710;BME280;47633;51.494;5.386;2023-08-30T01:38:31;100764.19;;;21.84;48.18
61710;BME280;47633;51.494;5.386;2023-08-30T01:40:58;100763.34;;;21.84;48.17
61710;BME280;47633;51.494;5.386;2023-08-30T01:43:26;100759.88;;;21.83;48.00
61710;BME280;47633;51.494;5.386;2023-08-30T01:45:52;100760.84;;;21.82;47.99
61710;BME280;47633;51.494;5.386;2023-08-30T01:48:18;100772.31;;;21.83;47.77
61710;BME280;47633;51.494;5.386;2023-08-30T01:50:45;100758.19;;;21.82;47.85
61710;BME280;47633;51.494;5.386;2023-08-30T01:53:12;100756.53;;;21.81;48.02
61710;BME280;47633;51.494;5.386;2023-08-30T01:55:38;100759.19;;;21.81;48.05
61710;BME280;47633;51.494;5.386;2023-08-30T01:58:05;100758.34;;;21.81;47.65
61710;BME280;47633;51.494;5.386;2023-08-30T02:00:31;100755.69;;;21.81;47.90
61710;BME280;47633;51.494;5.386;2023-08-30T02:02:56;100756.69;;;21.80;47.68
61710;BME280;47633;51.494;5.386;2023-08-30T02:05:22;100762.00;;;21.80;47.61
61710;BME280;47633;51.494;5.386;2023-08-30T02:07:57;100763.78;;;21.79;47.79
61710;BME280;47633;51.494;5.386;2023-08-30T02:10:35;100763.13;;;21.77;47.61
61710;BME280;47633;51.494;5.386;2023-08-30T02:13:04;100761.28;;;21.78;47.67
61710;BME280;47633;51.494;5.386;2023-08-30T02:15:31;100755.97;;;21.78;47.61
61710;BME280;47633;51.494;5.386;2023-08-30T02:17:58;100748.03;;;21.78;47.41
61710;BME280;47633;51.494;5.386;2023-08-30T02:20:24;100751.69;;;21.77;47.75
61710;BME280;47633;51.494;5.386;2023-08-30T02:22:50;100743.72;;;21.77;47.64
61710;BME280;47633;51.494;5.386;2023-08-30T02:25:15;100743.72;;;21.77;47.80
61710;BME280;47633;51.494;5.386;2023-08-30T02:27:40;100740.22;;;21.76;47.70
61710;BME280;47633;51.494;5.386;2023-08-30T02:30:07;100724.78;;;21.71;47.90
61710;BME280;47633;51.494;5.386;2023-08-30T02:32:32;100733.25;;;21.75;47.80
61710;BME280;47633;51.494;5.386;2023-08-30T02:34:57;100729.75;;;21.74;47.57
61710;BME280;47633;51.494;5.386;2023-08-30T02:37:23;100728.94;;;21.74;47.92
61710;BME280;47633;51.494;5.386;2023-08-30T02:39:49;100729.75;;;21.74;47.80
61710;BME280;47633;51.494;5.386;2023-08-30T02:42:14;100730.75;;;21.73;47.88
61710;BME280;47633;51.494;5.386;2023-08-30T02:44:39;100722.81;;;21.73;48.09
61710;BME280;47633;51.494;5.386;2023-08-30T02:47:05;100730.75;;;21.73;47.85
61710;BME280;47633;51.494;5.386;2023-08-30T02:49:30;100726.44;;;21.72;47.97
61710;BME280;47633;51.494;5.386;2023-08-30T02:51:55;100721.97;;;21.73;47.91
61710;BME280;47633;51.494;5.386;2023-08-30T02:54:21;100717.81;;;21.70;48.07
61710;BME280;47633;51.494;5.386;2023-08-30T02:56:47;100719.47;;;21.71;47.89
61710;BME280;47633;51.494;5.386;2023-08-30T02:59:13;100718.63;;;21.71;48.07
61710;BME280;47633;51.494;5.386;2023-08-30T03:01:38;100706.22;;;21.71;47.88
61710;BME280;47633;51.494;5.386;2023-08-30T03:04:07;100709.84;;;21.70;48.36
61710;BME280;47633;51.494;5.386;2023-08-30T03:06:33;100715.97;;;21.71;48.34
61710;BME280;47633;51.494;5.386;2023-08-30T03:08:59;100709.84;;;21.70;48.25
61710;BME280;47633;51.494;5.386;2023-08-30T03:11:24;100715.16;;;21.70;48.36
61710;BME280;47633;51.494;5.386;2023-08-30T03:13:50;100709.03;;;21.70;48.11
61710;BME280;47633;51.494;5.386;2023-08-30T03:16:17;100706.38;;;21.70;48.47
61710;BME280;47633;51.494;5.386;2023-08-30T03:18:43;100705.50;;;21.69;48.20
61710;BME280;47633;51.494;5.386;2023-08-30T03:21:09;100703.00;;;21.68;48.22
61710;BME280;47633;51.494;5.386;2023-08-30T03:23:35;100701.22;;;21.68;48.58
61710;BME280;47633;51.494;5.386;2023-08-30T03:26:11;100700.38;;;21.68;48.61
61710;BME280;47633;51.494;5.386;2023-08-30T03:28:37;100700.38;;;21.68;48.47
61710;BME280;47633;51.494;5.386;2023-08-30T03:31:11;100689.75;;;21.68;48.46
61710;BME280;47633;51.494;5.386;2023-08-30T03:33:37;100694.09;;;21.69;48.55
61710;BME280;47633;51.494;5.386;2023-08-30T03:36:02;100676.34;;;21.69;48.58
61710;BME280;47633;51.494;5.386;2023-08-30T03:38:28;100674.69;;;21.68;48.25
61710;BME280;47633;51.494;5.386;2023-08-30T03:40:54;100671.19;;;21.68;48.67
61710;BME280;47633;51.494;5.386;2023-08-30T03:43:19;100669.41;;;21.68;48.38
61710;BME280;47633;51.494;5.386;2023-08-30T03:45:46;100653.63;;;21.67;48.65
61710;BME280;47633;51.494;5.386;2023-08-30T03:48:11;100647.47;;;21.66;48.54
61710;BME280;47633;51.494;5.386;2023-08-30T03:50:36;100641.19;;;21.67;48.65
61710;BME280;47633;51.494;5.386;2023-08-30T03:53:02;100638.69;;;21.66;48.50
61710;BME280;47633;51.494;5.386;2023-08-30T03:55:27;100641.19;;;21.67;48.86
61710;BME280;47633;51.494;5.386;2023-08-30T03:57:52;100631.56;;;21.66;48.46
61710;BME280;47633;51.494;5.386;2023-08-30T04:00:17;100623.75;;;21.65;48.61
61710;BME280;47633;51.494;5.386;2023-08-30T04:02:43;100609.66;;;21.64;49.07
61710;BME280;47633;51.494;5.386;2023-08-30T04:05:09;100615.66;;;21.66;48.79
61710;BME280;47633;51.494;5.386;2023-08-30T04:07:37;100606.06;;;21.65;48.63
61710;BME280;47633;51.494;5.386;2023-08-30T04:10:03;100608.69;;;21.65;48.43
61710;BME280;47633;51.494;5.386;2023-08-30T04:12:32;100601.72;;;21.64;48.43
61710;BME280;47633;51.494;5.386;2023-08-30T04:14:57;100597.25;;;21.65;48.61
61710;BME280;47633;51.494;5.386;2023-08-30T04:17:24;100600.91;;;21.64;48.56
61710;BME280;47633;51.494;5.386;2023-08-30T04:19:52;100604.69;;;21.61;48.44
61710;BME280;47633;51.494;5.386;2023-08-30T04:22:18;100605.34;;;21.63;48.51
61710;BME280;47633;51.494;5.386;2023-08-30T04:24:43;100615.13;;;21.63;48.47
61710;BME280;47633;51.494;5.386;2023-08-30T04:27:08;100609.81;;;21.63;48.81
61710;BME280;47633;51.494;5.386;2023-08-30T04:29:34;100612.47;;;21.63;48.63
61710;BME280;47633;51.494;5.386;2023-08-30T04:31:59;100604.53;;;21.63;48.63
61710;BME280;47633;51.494;5.386;2023-08-30T04:34:24;100601.06;;;21.62;48.75
61710;BME280;47633;51.494;5.386;2023-08-30T04:36:49;100595.75;;;21.62;49.05
61710;BME280;47633;51.494;5.386;2023-08-30T04:39:15;100589.59;;;21.62;48.58
61710;BME280;47633;51.494;5.386;2023-08-30T04:41:40;100598.41;;;21.62;48.78
61710;BME280;47633;51.494;5.386;2023-08-30T04:44:05;100591.41;;;21.61;48.78
61710;BME280;47633;51.494;5.386;2023-08-30T04:46:31;100597.53;;;21.62;48.95
61710;BME280;47633;51.494;5.386;2023-08-30T04:48:56;100585.28;;;21.61;48.85
61710;BME280;47633;51.494;5.386;2023-08-30T04:51:21;100587.78;;;21.62;48.92
61710;BME280;47633;51.494;5.386;2023-08-30T04:53:46;100586.13;;;21.61;48.64
61710;BME280;47633;51.494;5.386;2023-08-30T04:56:13;100579.13;;;21.60;48.99
61710;BME280;47633;51.494;5.386;2023-08-30T04:58:38;100582.63;;;21.61;48.80
61710;BME280;47633;51.494;5.386;2023-08-30T05:01:07;100574.84;;;21.59;49.24
61710;BME280;47633;51.494;5.386;2023-08-30T05:03:33;100573.00;;;21.60;49.03
61710;BME280;47633;51.494;5.386;2023-08-30T05:05:59;100573.00;;;21.60;48.79
61710;BME280;47633;51.494;5.386;2023-08-30T05:08:24;100573.84;;;21.60;49.20
61710;BME280;47633;51.494;5.386;2023-08-30T05:10:49;100573.00;;;21.60;49.52
61710;BME280;47633;51.494;5.386;2023-08-30T05:13:16;100568.88;;;21.57;49.01
61710;BME280;47633;51.494;5.386;2023-08-30T05:15:41;100571.34;;;21.59;49.18
61710;BME280;47633;51.494;5.386;2023-08-30T05:18:07;100558.94;;;21.59;49.29
61710;BME280;47633;51.494;5.386;2023-08-30T05:20:32;100553.63;;;21.59;49.19
61710;BME280;47633;51.494;5.386;2023-08-30T05:22:57;100549.16;;;21.60;49.31
61710;BME280;47633;51.494;5.386;2023-08-30T05:25:23;100554.59;;;21.58;49.52
61710;BME280;47633;51.494;5.386;2023-08-30T05:27:48;100549.28;;;21.58;49.10
61710;BME280;47633;51.494;5.386;2023-08-30T05:30:14;100551.94;;;21.58;49.30
61710;BME280;47633;51.494;5.386;2023-08-30T05:32:40;100557.25;;;21.58;49.65
61710;BME280;47633;51.494;5.386;2023-08-30T05:35:05;100560.72;;;21.59;49.52
61710;BME280;47633;51.494;5.386;2023-08-30T05:37:31;100562.56;;;21.58;49.58
61710;BME280;47633;51.494;5.386;2023-08-30T05:39:57;100548.47;;;21.58;49.49
61710;BME280;47633;51.494;5.386;2023-08-30T05:42:23;100540.53;;;21.58;49.20
61710;BME280;47633;51.494;5.386;2023-08-30T05:44:48;100545.81;;;21.58;49.66
61710;BME280;47633;51.494;5.386;2023-08-30T05:47:13;100546.66;;;21.58;49.60
61710;BME280;47633;51.494;5.386;2023-08-30T05:49:40;100539.69;;;21.57;49.46
61710;BME280;47633;51.494;5.386;2023-08-30T05:52:06;100534.41;;;21.57;49.42
61710;BME280;47633;51.494;5.386;2023-08-30T05:54:31;100532.56;;;21.58;49.62
61710;BME280;47633;51.494;5.386;2023-08-30T05:56:58;100525.59;;;21.56;49.46
61710;BME280;47633;51.494;5.386;2023-08-30T05:59:24;100523.78;;;21.57;49.85
61710;BME280;47633;51.494;5.386;2023-08-30T06:01:49;100524.75;;;21.56;49.96
61710;BME280;47633;51.494;5.386;2023-08-30T06:04:14;100522.78;;;21.58;49.74
61710;BME280;47633;51.494;5.386;2023-08-30T06:06:40;100522.94;;;21.56;49.95
61710;BME280;47633;51.494;5.386;2023-08-30T06:09:05;100522.13;;;21.56;50.00
61710;BME280;47633;51.494;5.386;2023-08-30T06:11:30;100527.25;;;21.58;49.55
61710;BME280;47633;51.494;5.386;2023-08-30T06:13:57;100522.94;;;21.56;50.06
61710;BME280;47633;51.494;5.386;2023-08-30T06:16:24;100518.50;;;21.57;49.76
61710;BME280;47633;51.494;5.386;2023-08-30T06:18:49;100520.28;;;21.56;49.91
61710;BME280;47633;51.494;5.386;2023-08-30T06:21:15;100520.78;;;21.60;49.52
61710;BME280;47633;51.494;5.386;2023-08-30T06:23:40;100516.72;;;21.66;49.76
61710;BME280;47633;51.494;5.386;2023-08-30T06:26:05;100509.56;;;21.66;49.72
61710;BME280;47633;51.494;5.386;2023-08-30T06:28:31;100508.59;;;21.67;50.02
61710;BME280;47633;51.494;5.386;2023-08-30T06:30:56;100512.78;;;21.70;49.80
61710;BME280;47633;51.494;5.386;2023-08-30T06:33:22;100515.56;;;21.68;49.79
61710;BME280;47633;51.494;5.386;2023-08-30T06:35:48;100517.22;;;21.69;50.06
61710;BME280;47633;51.494;5.386;2023-08-30T06:38:14;100519.03;;;21.69;50.37
61710;BME280;47633;51.494;5.386;2023-08-30T06:40:44;100531.47;;;21.68;50.52
61710;BME280;47633;51.494;5.386;2023-08-30T06:43:10;100535.13;;;21.67;50.54
61710;BME280;47633;51.494;5.386;2023-08-30T06:45:35;100532.78;;;21.64;50.43
61710;BME280;47633;51.494;5.386;2023-08-30T06:48:00;100523.84;;;21.65;50.81
61710;BME280;47633;51.494;5.386;2023-08-30T06:50:26;100519.66;;;21.63;50.80
61710;BME280;47633;51.494;5.386;2023-08-30T06:52:51;100528.59;;;21.62;50.77
61710;BME280;47633;51.494;5.386;2023-08-30T06:55:16;100525.94;;;21.62;50.71
61710;BME280;47633;51.494;5.386;2023-08-30T06:57:47;100532.94;;;21.63;50.90
61710;BME280;47633;51.494;5.386;2023-08-30T07:00:14;100540.72;;;21.64;51.15
61710;BME280;47633;51.494;5.386;2023-08-30T07:02:40;100528.44;;;21.63;51.18
61710;BME280;47633;51.494;5.386;2023-08-30T07:05:05;100531.09;;;21.63;50.95
61710;BME280;47633;51.494;5.386;2023-08-30T07:07:31;100535.72;;;21.61;51.31
61710;BME280;47633;51.494;5.386;2023-08-30T07:09:57;100522.31;;;21.63;51.04
61710;BME280;47633;51.494;5.386;2023-08-30T07:12:22;100502.09;;;21.62;51.42
61710;BME280;47633;51.494;5.386;2023-08-30T07:14:48;100495.97;;;21.61;51.26
61710;BME280;47633;51.494;5.386;2023-08-30T07:17:13;100492.31;;;21.62;51.84
61710;BME280;47633;51.494;5.386;2023-08-30T07:19:38;100490.66;;;21.61;51.77
61710;BME280;47633;51.494;5.386;2023-08-30T07:22:04;100482.53;;;21.63;51.99
61710;BME280;47633;51.494;5.386;2023-08-30T07:24:29;100478.06;;;21.63;51.92
61710;BME280;47633;51.494;5.386;2023-08-30T07:26:55;100473.47;;;21.65;52.08
61710;BME280;47633;51.494;5.386;2023-08-30T07:29:20;100479.28;;;21.69;51.72
61710;BME280;47633;51.494;5.386;2023-08-30T07:31:45;100474.78;;;21.69;52.06
61710;BME280;47633;51.494;5.386;2023-08-30T07:34:10;100478.59;;;21.67;51.52
61710;BME280;47633;51.494;5.386;2023-08-30T07:36:36;100481.59;;;21.72;52.06
61710;BME280;47633;51.494;5.386;2023-08-30T07:39:02;100478.13;;;21.71;52.25
61710;BME280;47633;51.494;5.386;2023-08-30T07:41:28;100465.53;;;21.73;51.72
61710;BME280;47633;51.494;5.386;2023-08-30T07:43:53;100465.69;;;21.72;51.46
61710;BME280;47633;51.494;5.386;2023-08-30T07:46:18;100467.38;;;21.73;51.60
61710;BME280;47633;51.494;5.386;2023-08-30T07:48:44;100470.03;;;21.73;51.95
61710;BME280;47633;51.494;5.386;2023-08-30T07:51:09;100465.53;;;21.73;51.71
61710;BME280;47633;51.494;5.386;2023-08-30T07:53:35;100470.84;;;21.73;51.69
61710;BME280;47633;51.494;5.386;2023-08-30T07:56:00;100461.22;;;21.72;52.03
61710;BME280;47633;51.494;5.386;2023-08-30T07:58:25;100455.91;;;21.72;51.87
61710;BME280;47633;51.494;5.386;2023-08-30T08:00:52;100464.34;;;21.68;52.13
61710;BME280;47633;51.494;5.386;2023-08-30T08:03:17;100468.50;;;21.70;52.28
61710;BME280;47633;51.494;5.386;2023-08-30T08:05:43;100466.69;;;21.71;51.79
61710;BME280;47633;51.494;5.386;2023-08-30T08:08:08;100465.84;;;21.70;52.26
61710;BME280;47633;51.494;5.386;2023-08-30T08:10:36;100467.53;;;21.71;51.81
61710;BME280;47633;51.494;5.386;2023-08-30T08:13:01;100469.16;;;21.72;51.98
61710;BME280;47633;51.494;5.386;2023-08-30T08:15:29;100471.81;;;21.72;51.86
61710;BME280;47633;51.494;5.386;2023-08-30T08:17:58;100468.19;;;21.73;52.04
61710;BME280;47633;51.494;5.386;2023-08-30T08:20:24;100458.72;;;21.71;52.21
61710;BME280;47633;51.494;5.386;2023-08-30T08:22:49;100455.41;;;21.69;52.11
61710;BME280;47633;51.494;5.386;2023-08-30T08:25:15;100460.34;;;21.64;52.36
61710;BME280;47633;51.494;5.386;2023-08-30T08:27:41;100470.25;;;21.62;52.45
61710;BME280;47633;51.494;5.386;2023-08-30T08:30:07;100471.47;;;21.67;52.24
61710;BME280;47633;51.494;5.386;2023-08-30T08:32:32;100469.16;;;21.72;52.36
61710;BME280;47633;51.494;5.386;2023-08-30T08:34:58;100468.69;;;21.77;52.31
61710;BME280;47633;51.494;5.386;2023-08-30T08:37:24;100467.88;;;21.77;52.45
61710;BME280;47633;51.494;5.386;2023-08-30T08:39:49;100468.19;;;21.73;52.46
61710;BME280;47633;51.494;5.386;2023-08-30T08:42:18;100462.38;;;21.70;52.55
61710;BME280;47633;51.494;5.386;2023-08-30T08:44:47;100460.53;;;21.70;52.81
61710;BME280;47633;51.494;5.386;2023-08-30T08:47:15;100464.19;;;21.69;52.58
61710;BME280;47633;51.494;5.386;2023-08-30T08:49:42;100470.19;;;21.71;52.83
61710;BME280;47633;51.494;5.386;2023-08-30T08:52:07;100461.38;;;21.71;52.71
61710;BME280;47633;51.494;5.386;2023-08-30T08:54:33;100466.53;;;21.72;52.93
61710;BME280;47633;51.494;5.386;2023-08-30T08:56:59;100472.84;;;21.71;52.95
61710;BME280;47633;51.494;5.386;2023-08-30T08:59:25;100469.16;;;21.72;52.61
61710;BME280;47633;51.494;5.386;2023-08-30T09:01:50;100474.47;;;21.72;53.06
61710;BME280;47633;51.494;5.386;2023-08-30T09:04:16;100467.19;;;21.74;53.00
61710;BME280;47633;51.494;5.386;2023-08-30T09:06:41;100467.88;;;21.77;52.91
61710;BME280;47633;51.494;5.386;2023-08-30T09:09:09;100469.84;;;21.74;52.82
61710;BME280;47633;51.494;5.386;2023-08-30T09:11:35;100465.69;;;21.72;53.20
61710;BME280;47633;51.494;5.386;2023-08-30T09:14:00;100462.06;;;21.73;53.34
61710;BME280;47633;51.494;5.386;2023-08-30T09:16:27;100462.88;;;21.73;52.93
61710;BME280;47633;51.494;5.386;2023-08-30T09:19:03;100459.22;;;21.74;53.40
61710;BME280;47633;51.494;5.386;2023-08-30T09:21:30;100456.09;;;21.79;53.34
61710;BME280;47633;51.494;5.386;2023-08-30T09:24:04;100459.59;;;21.80;53.39
61710;BME280;47633;51.494;5.386;2023-08-30T09:26:31;100459.75;;;21.78;53.51
61710;BME280;47633;51.494;5.386;2023-08-30T09:29:03;100463.91;;;21.81;53.16
61710;BME280;47633;51.494;5.386;2023-08-30T09:31:38;100464.75;;;21.81;53.45
61710;BME280;47633;51.494;5.386;2023-08-30T09:34:24;100463.75;;;21.82;53.41
61710;BME280;47633;51.494;5.386;2023-08-30T09:36:50;100469.75;;;21.84;53.35
61710;BME280;47633;51.494;5.386;2023-08-30T09:39:16;100470.41;;;21.86;53.68
61710;BME280;47633;51.494;5.386;2023-08-30T09:41:43;100470.56;;;21.85;53.45
61710;BME280;47633;51.494;5.386;2023-08-30T09:44:17;100470.56;;;21.85;53.67
61710;BME280;47633;51.494;5.386;2023-08-30T09:46:43;100470.56;;;21.85;53.26
61710;BME280;47633;51.494;5.386;2023-08-30T09:49:10;100465.94;;;21.87;53.68
61710;BME280;47633;51.494;5.386;2023-08-30T09:51:38;100470.25;;;21.88;53.44
61710;BME280;47633;51.494;5.386;2023-08-30T09:54:27;100472.91;;;21.88;53.85
61710;BME280;47633;51.494;5.386;2023-08-30T09:56:55;100463.97;;;21.89;53.47
61710;BME280;47633;51.494;5.386;2023-08-30T09:59:22;100469.44;;;21.87;53.83
61710;BME280;47633;51.494;5.386;2023-08-30T10:01:49;100462.44;;;21.86;53.67
61710;BME280;47633;51.494;5.386;2023-08-30T10:04:15;100459.31;;;21.91;53.81
61710;BME280;47633;51.494;5.386;2023-08-30T10:06:42;100454.03;;;21.91;53.74
61710;BME280;47633;51.494;5.386;2023-08-30T10:09:08;100445.06;;;21.92;53.71
61710;BME280;47633;51.494;5.386;2023-08-30T10:11:35;100442.09;;;21.95;54.09
61710;BME280;47633;51.494;5.386;2023-08-30T10:14:05;100445.75;;;21.94;54.24
61710;BME280;47633;51.494;5.386;2023-08-30T10:16:41;100440.44;;;21.94;54.25
61710;BME280;47633;51.494;5.386;2023-08-30T10:19:31;100443.09;;;21.94;54.30
61710;BME280;47633;51.494;5.386;2023-08-30T10:22:03;100439.44;;;21.95;54.80
61710;BME280;47633;51.494;5.386;2023-08-30T10:24:52;100436.31;;;22.00;54.34
61710;BME280;47633;51.494;5.386;2023-08-30T10:27:17;100435.00;;;22.04;54.45
61710;BME280;47633;51.494;5.386;2023-08-30T10:29:43;100434.38;;;22.10;54.30
61710;BME280;47633;51.494;5.386;2023-08-30T10:32:10;100430.69;;;22.11;54.06
61710;BME280;47633;51.494;5.386;2023-08-30T10:34:36;100428.56;;;22.15;54.11
61710;BME280;47633;51.494;5.386;2023-08-30T10:37:11;100434.69;;;22.15;54.30
61710;BME280;47633;51.494;5.386;2023-08-30T10:39:41;100434.38;;;22.18;54.39
61710;BME280;47633;51.494;5.386;2023-08-30T10:42:14;100423.94;;;22.17;53.88
61710;BME280;47633;51.494;5.386;2023-08-30T10:47:19;100428.41;;;22.16;53.74
61710;BME280;47633;51.494;5.386;2023-08-30T10:49:47;100428.25;;;22.18;54.14
61710;BME280;47633;51.494;5.386;2023-08-30T10:52:12;100424.09;;;22.15;54.21
61710;BME280;47633;51.494;5.386;2023-08-30T10:54:37;100427.56;;;22.16;54.30
61710;BME280;47633;51.494;5.386;2023-08-30T10:57:04;100417.81;;;22.16;54.04
61710;BME280;47633;51.494;5.386;2023-08-30T10:59:29;100425.75;;;22.16;54.10
61710;BME280;47633;51.494;5.386;2023-08-30T11:01:55;100431.22;;;22.15;54.07
61710;BME280;47633;51.494;5.386;2023-08-30T11:04:22;100425.94;;;22.15;54.13
61710;BME280;47633;51.494;5.386;2023-08-30T11:06:49;100420.78;;;22.13;54.03
61710;BME280;47633;51.494;5.386;2023-08-30T11:09:16;100423.44;;;22.13;54.20
61710;BME280;47633;51.494;5.386;2023-08-30T11:11:45;100415.47;;;22.13;54.05
61710;BME280;47633;51.494;5.386;2023-08-30T11:14:11;100420.09;;;22.11;54.39
61710;BME280;47633;51.494;5.386;2023-08-30T11:16:37;100428.03;;;22.11;54.37
61710;BME280;47633;51.494;5.386;2023-08-30T11:19:03;100422.75;;;22.11;54.26
61710;BME280;47633;51.494;5.386;2023-08-30T11:21:30;100425.56;;;22.09;54.60
61710;BME280;47633;51.494;5.386;2023-08-30T11:23:56;100420.25;;;22.09;54.13
61710;BME280;47633;51.494;5.386;2023-08-30T11:26:22;100417.44;;;22.11;54.33
61710;BME280;47633;51.494;5.386;2023-08-30T11:28:47;100421.75;;;22.12;54.34
61710;BME280;47633;51.494;5.386;2023-08-30T11:31:22;100427.06;;;22.12;54.73
61710;BME280;47633;51.494;5.386;2023-08-30T11:33:55;100431.56;;;22.12;54.59
61710;BME280;47633;51.494;5.386;2023-08-30T11:36:23;100437.69;;;22.12;54.19
61710;BME280;47633;51.494;5.386;2023-08-30T11:38:52;100440.66;;;22.09;54.66
61710;BME280;47633;51.494;5.386;2023-08-30T11:41:20;100442.00;;;22.13;54.52
61710;BME280;47633;51.494;5.386;2023-08-30T11:43:47;100445.47;;;22.14;54.10
61710;BME280;47633;51.494;5.386;2023-08-30T11:46:12;100442.00;;;22.13;54.20
61710;BME280;47633;51.494;5.386;2023-08-30T11:48:39;100456.09;;;22.14;54.40
61710;BME280;47633;51.494;5.386;2023-08-30T11:51:06;100451.59;;;22.14;53.98
61710;BME280;47633;51.494;5.386;2023-08-30T11:53:32;100450.13;;;22.12;54.01
61710;BME280;47633;51.494;5.386;2023-08-30T11:55:58;100440.97;;;22.06;54.02
61710;BME280;47633;51.494;5.386;2023-08-30T11:58:23;100443.63;;;22.06;54.04
61710;BME280;47633;51.494;5.386;2023-08-30T12:00:50;100441.81;;;22.06;53.98
61710;BME280;47633;51.494;5.386;2023-08-30T12:03:16;100441.31;;;22.11;53.78
61710;BME280;47633;51.494;5.386;2023-08-30T12:05:48;100441.47;;;22.09;53.67
61710;BME280;47633;51.494;5.386;2023-08-30T12:08:32;100444.97;;;22.10;54.10
61710;BME280;47633;51.494;5.386;2023-08-30T12:10:58;100447.63;;;22.10;54.08
61710;BME280;47633;51.494;5.386;2023-08-30T12:15:54;100444.47;;;22.06;54.04
61710;BME280;47633;51.494;5.386;2023-08-30T12:18:23;100448.09;;;22.05;53.96
61710;BME280;47633;51.494;5.386;2023-08-30T12:21:03;100456.38;;;22.02;53.87
61710;BME280;47633;51.494;5.386;2023-08-30T12:23:30;100447.44;;;22.03;53.56
61710;BME280;47633;51.494;5.386;2023-08-30T12:28:28;100454.88;;;22.00;53.53
61710;BME280;47633;51.494;5.386;2023-08-30T12:30:54;100457.53;;;22.00;53.47
61710;BME280;47633;51.494;5.386;2023-08-30T12:33:19;100460.88;;;22.02;53.65
61710;BME280;47633;51.494;5.386;2023-08-30T12:35:45;100462.84;;;22.00;53.79
61710;BME280;47633;51.494;5.386;2023-08-30T12:38:10;100463.22;;;22.05;53.51
61710;BME280;47633;51.494;5.386;2023-08-30T12:40:46;100468.69;;;22.03;53.60
61710;BME280;47633;51.494;5.386;2023-08-30T12:43:12;100471.16;;;22.05;53.24
61710;BME280;47633;51.494;5.386;2023-08-30T12:45:39;100469.19;;;22.07;53.49
61710;BME280;47633;51.494;5.386;2023-08-30T12:48:05;100478.97;;;22.06;53.31
61710;BME280;47633;51.494;5.386;2023-08-30T12:50:30;100475.47;;;22.06;53.48
61710;BME280;47633;51.494;5.386;2023-08-30T12:52:56;100475.97;;;22.09;53.52
61710;BME280;47633;51.494;5.386;2023-08-30T12:55:21;100465.19;;;22.11;53.32
61710;BME280;47633;51.494;5.386;2023-08-30T12:57:46;100469.03;;;22.08;53.21